sensor_id;sensor_type;location;lat;lon;timestamp;P1;durP1;ratioP1;P2;durP2;ratioP2
19107;SDS011;9686;48.832;9.126;2022-09-09T00:00:17;1.87;;;1.00;;
19107;SDS011;9686;48.832;9.126;2022-09-09T00:03:09;3.67;;;1.60;;
19107;SDS011;9686;48.832;9.126;2022-09-09T00:05:55;3.80;;;1.10;;
19107;SDS011;9686;48.832;9.126;2022-09-09T00:08:22;2.60;;;1.00;;
19107;SDS011;9686;48.832;9.126;2022-09-09T00:10:58;3.23;;;1.00;;
19107;SDS011;9686;48.832;9.126;2022-09-09T00:16:06;2.90;;;1.20;;
19107;SDS011;9686;48.832;9.126;2022-09-09T00:18:51;1.40;;;0.90;;
19107;SDS011;9686;48.832;9.126;2022-09-09T00:21:19;2.43;;;1.00;;
19107;SDS011;9686;48.832;9.126;2022-09-09T00:23:50;4.57;;;1.20;;
19107;SDS011;9686;48.832;9.126;2022-09-09T00:28:47;2.60;;;0.87;;
19107;SDS011;9686;48.832;9.126;2022-09-09T00:31:20;2.43;;;1.10;;
19107;SDS011;9686;48.832;9.126;2022-09-09T00:33:50;1.73;;;0.90;;
19107;SDS011;9686;48.832;9.126;2022-09-09T00:36:18;2.00;;;1.00;;
19107;SDS011;9686;48.832;9.126;2022-09-09T00:38:51;1.20;;;0.77;;
19107;SDS011;9686;48.832;9.126;2022-09-09T00:41:35;2.83;;;0.80;;
19107;SDS011;9686;48.832;9.126;2022-09-09T00:47:06;2.63;;;0.73;;
19107;SDS011;9686;48.832;9.126;2022-09-09T00:55:09;3.17;;;1.17;;
19107;SDS011;9686;48.832;9.126;2022-09-09T00:57:51;1.83;;;0.90;;
19107;SDS011;9686;48.832;9.126;2022-09-09T01:00:19;2.20;;;0.80;;
19107;SDS011;9686;48.832;9.126;2022-09-09T01:02:58;1.53;;;0.87;;
19107;SDS011;9686;48.832;9.126;2022-09-09T01:12:23;2.70;;;1.17;;
19107;SDS011;9686;48.832;9.126;2022-09-09T01:14:51;2.03;;;0.90;;
19107;SDS011;9686;48.832;9.126;2022-09-09T01:17:28;3.67;;;0.83;;
19107;SDS011;9686;48.832;9.126;2022-09-09T01:22:47;1.93;;;1.10;;
19107;SDS011;9686;48.832;9.126;2022-09-09T01:28:03;0.60;;;0.60;;
19107;SDS011;9686;48.832;9.126;2022-09-09T01:30:34;2.33;;;1.03;;
19107;SDS011;9686;48.832;9.126;2022-09-09T01:33:03;2.63;;;0.90;;
19107;SDS011;9686;48.832;9.126;2022-09-09T01:38:03;1.77;;;0.93;;
19107;SDS011;9686;48.832;9.126;2022-09-09T01:40:29;1.13;;;0.90;;
19107;SDS011;9686;48.832;9.126;2022-09-09T01:42:54;1.47;;;0.87;;
19107;SDS011;9686;48.832;9.126;2022-09-09T01:45:21;6.10;;;1.37;;
19107;SDS011;9686;48.832;9.126;2022-09-09T01:47:48;2.57;;;0.80;;
19107;SDS011;9686;48.832;9.126;2022-09-09T01:50:15;2.13;;;0.80;;
19107;SDS011;9686;48.832;9.126;2022-09-09T01:52:41;5.53;;;1.40;;
19107;SDS011;9686;48.832;9.126;2022-09-09T01:55:10;3.77;;;1.00;;
19107;SDS011;9686;48.832;9.126;2022-09-09T01:57:39;4.97;;;0.83;;
19107;SDS011;9686;48.832;9.126;2022-09-09T02:00:15;1.47;;;0.80;;
19107;SDS011;9686;48.832;9.126;2022-09-09T02:05:56;3.40;;;1.10;;
19107;SDS011;9686;48.832;9.126;2022-09-09T02:08:26;1.40;;;0.87;;
19107;SDS011;9686;48.832;9.126;2022-09-09T02:10:59;2.37;;;0.90;;
19107;SDS011;9686;48.832;9.126;2022-09-09T02:13:30;1.17;;;0.80;;
19107;SDS011;9686;48.832;9.126;2022-09-09T02:19:17;5.10;;;2.57;;
19107;SDS011;9686;48.832;9.126;2022-09-09T02:21:50;4.23;;;0.87;;
19107;SDS011;9686;48.832;9.126;2022-09-09T02:24:18;3.10;;;1.00;;
19107;SDS011;9686;48.832;9.126;2022-09-09T02:26:44;2.90;;;0.87;;
19107;SDS011;9686;48.832;9.126;2022-09-09T02:29:19;3.53;;;0.93;;
19107;SDS011;9686;48.832;9.126;2022-09-09T02:31:50;2.47;;;0.90;;
19107;SDS011;9686;48.832;9.126;2022-09-09T02:34:20;1.67;;;0.87;;
19107;SDS011;9686;48.832;9.126;2022-09-09T02:36:48;3.43;;;0.83;;
19107;SDS011;9686;48.832;9.126;2022-09-09T02:39:16;1.83;;;0.90;;
19107;SDS011;9686;48.832;9.126;2022-09-09T02:41:41;2.53;;;0.80;;
19107;SDS011;9686;48.832;9.126;2022-09-09T02:44:14;3.33;;;1.10;;
19107;SDS011;9686;48.832;9.126;2022-09-09T02:49:29;2.70;;;0.87;;
19107;SDS011;9686;48.832;9.126;2022-09-09T02:54:43;2.30;;;0.90;;
19107;SDS011;9686;48.832;9.126;2022-09-09T02:57:14;1.33;;;0.70;;
19107;SDS011;9686;48.832;9.126;2022-09-09T02:59:44;1.13;;;0.90;;
19107;SDS011;9686;48.832;9.126;2022-09-09T03:02:10;1.27;;;0.90;;
19107;SDS011;9686;48.832;9.126;2022-09-09T03:04:36;0.97;;;0.80;;
19107;SDS011;9686;48.832;9.126;2022-09-09T03:07:02;1.43;;;0.90;;
19107;SDS011;9686;48.832;9.126;2022-09-09T03:09:28;2.00;;;0.90;;
19107;SDS011;9686;48.832;9.126;2022-09-09T03:11:54;0.80;;;0.80;;
19107;SDS011;9686;48.832;9.126;2022-09-09T03:14:20;2.40;;;0.70;;
19107;SDS011;9686;48.832;9.126;2022-09-09T03:16:49;1.73;;;0.83;;
19107;SDS011;9686;48.832;9.126;2022-09-09T03:19:15;1.33;;;0.60;;
19107;SDS011;9686;48.832;9.126;2022-09-09T03:21:40;3.63;;;0.80;;
19107;SDS011;9686;48.832;9.126;2022-09-09T03:24:05;1.37;;;0.70;;
19107;SDS011;9686;48.832;9.126;2022-09-09T03:26:31;3.33;;;0.87;;
19107;SDS011;9686;48.832;9.126;2022-09-09T03:28:57;1.70;;;0.60;;
19107;SDS011;9686;48.832;9.126;2022-09-09T03:31:22;1.23;;;0.80;;
19107;SDS011;9686;48.832;9.126;2022-09-09T03:33:47;2.20;;;0.80;;
19107;SDS011;9686;48.832;9.126;2022-09-09T03:36:13;1.93;;;1.17;;
19107;SDS011;9686;48.832;9.126;2022-09-09T03:38:39;1.53;;;0.70;;
19107;SDS011;9686;48.832;9.126;2022-09-09T03:41:05;0.70;;;0.70;;
19107;SDS011;9686;48.832;9.126;2022-09-09T03:43:30;2.60;;;0.73;;
19107;SDS011;9686;48.832;9.126;2022-09-09T03:45:56;2.27;;;0.80;;
19107;SDS011;9686;48.832;9.126;2022-09-09T03:48:24;4.17;;;0.70;;
19107;SDS011;9686;48.832;9.126;2022-09-09T03:50:52;4.43;;;0.90;;
19107;SDS011;9686;48.832;9.126;2022-09-09T03:53:19;1.63;;;0.70;;
19107;SDS011;9686;48.832;9.126;2022-09-09T03:55:47;1.70;;;0.60;;
19107;SDS011;9686;48.832;9.126;2022-09-09T03:58:15;1.33;;;0.77;;
19107;SDS011;9686;48.832;9.126;2022-09-09T04:00:41;1.43;;;0.60;;
19107;SDS011;9686;48.832;9.126;2022-09-09T04:03:10;1.93;;;0.57;;
19107;SDS011;9686;48.832;9.126;2022-09-09T04:05:35;3.63;;;0.70;;
19107;SDS011;9686;48.832;9.126;2022-09-09T04:08:04;3.67;;;0.70;;
19107;SDS011;9686;48.832;9.126;2022-09-09T04:10:33;0.40;;;0.40;;
19107;SDS011;9686;48.832;9.126;2022-09-09T04:13:02;1.27;;;0.50;;
19107;SDS011;9686;48.832;9.126;2022-09-09T04:15:28;1.03;;;0.70;;
19107;SDS011;9686;48.832;9.126;2022-09-09T04:17:54;2.00;;;0.50;;
19107;SDS011;9686;48.832;9.126;2022-09-09T04:20:20;3.30;;;0.60;;
19107;SDS011;9686;48.832;9.126;2022-09-09T04:22:47;1.67;;;0.67;;
19107;SDS011;9686;48.832;9.126;2022-09-09T04:25:12;2.93;;;0.63;;
19107;SDS011;9686;48.832;9.126;2022-09-09T04:27:37;1.37;;;0.70;;
19107;SDS011;9686;48.832;9.126;2022-09-09T04:30:03;1.80;;;0.77;;
19107;SDS011;9686;48.832;9.126;2022-09-09T04:32:28;4.37;;;1.10;;
19107;SDS011;9686;48.832;9.126;2022-09-09T04:34:53;3.30;;;0.97;;
19107;SDS011;9686;48.832;9.126;2022-09-09T04:37:19;3.07;;;0.73;;
19107;SDS011;9686;48.832;9.126;2022-09-09T04:39:44;1.97;;;0.70;;
19107;SDS011;9686;48.832;9.126;2022-09-09T04:42:10;1.13;;;0.50;;
19107;SDS011;9686;48.832;9.126;2022-09-09T04:44:36;2.00;;;0.80;;
19107;SDS011;9686;48.832;9.126;2022-09-09T04:47:02;2.60;;;0.50;;
19107;SDS011;9686;48.832;9.126;2022-09-09T04:49:28;0.73;;;0.50;;
19107;SDS011;9686;48.832;9.126;2022-09-09T04:51:53;3.77;;;0.77;;
19107;SDS011;9686;48.832;9.126;2022-09-09T04:54:18;2.27;;;0.60;;
19107;SDS011;9686;48.832;9.126;2022-09-09T04:56:44;2.63;;;0.93;;
19107;SDS011;9686;48.832;9.126;2022-09-09T04:59:09;0.73;;;0.60;;
19107;SDS011;9686;48.832;9.126;2022-09-09T05:01:34;1.80;;;0.70;;
19107;SDS011;9686;48.832;9.126;2022-09-09T05:04:01;1.43;;;0.77;;
19107;SDS011;9686;48.832;9.126;2022-09-09T05:06:27;3.37;;;0.60;;
19107;SDS011;9686;48.832;9.126;2022-09-09T05:08:54;1.40;;;0.80;;
19107;SDS011;9686;48.832;9.126;2022-09-09T05:11:20;3.13;;;0.80;;
19107;SDS011;9686;48.832;9.126;2022-09-09T05:13:53;2.53;;;0.73;;
19107;SDS011;9686;48.832;9.126;2022-09-09T05:16:19;2.73;;;0.80;;
19107;SDS011;9686;48.832;9.126;2022-09-09T05:18:45;2.87;;;0.67;;
19107;SDS011;9686;48.832;9.126;2022-09-09T05:21:12;1.67;;;0.63;;
19107;SDS011;9686;48.832;9.126;2022-09-09T05:23:38;3.50;;;0.90;;
19107;SDS011;9686;48.832;9.126;2022-09-09T05:26:04;1.50;;;0.80;;
19107;SDS011;9686;48.832;9.126;2022-09-09T05:28:31;2.30;;;1.17;;
19107;SDS011;9686;48.832;9.126;2022-09-09T05:30:59;1.80;;;0.83;;
19107;SDS011;9686;48.832;9.126;2022-09-09T05:33:28;1.30;;;0.80;;
19107;SDS011;9686;48.832;9.126;2022-09-09T05:35:55;2.73;;;0.80;;
19107;SDS011;9686;48.832;9.126;2022-09-09T05:38:25;1.10;;;0.80;;
19107;SDS011;9686;48.832;9.126;2022-09-09T05:40:51;3.50;;;0.97;;
19107;SDS011;9686;48.832;9.126;2022-09-09T05:43:17;3.07;;;0.70;;
19107;SDS011;9686;48.832;9.126;2022-09-09T05:45:45;1.53;;;0.80;;
19107;SDS011;9686;48.832;9.126;2022-09-09T05:48:16;3.50;;;1.00;;
19107;SDS011;9686;48.832;9.126;2022-09-09T05:50:42;1.33;;;0.80;;
19107;SDS011;9686;48.832;9.126;2022-09-09T05:53:08;2.27;;;0.90;;
19107;SDS011;9686;48.832;9.126;2022-09-09T05:55:34;3.13;;;0.70;;
19107;SDS011;9686;48.832;9.126;2022-09-09T05:57:59;4.00;;;1.20;;
19107;SDS011;9686;48.832;9.126;2022-09-09T06:00:26;2.97;;;0.70;;
19107;SDS011;9686;48.832;9.126;2022-09-09T06:02:51;1.73;;;0.83;;
19107;SDS011;9686;48.832;9.126;2022-09-09T06:05:18;1.90;;;0.80;;
19107;SDS011;9686;48.832;9.126;2022-09-09T06:07:43;4.63;;;1.00;;
19107;SDS011;9686;48.832;9.126;2022-09-09T06:10:09;1.23;;;0.50;;
19107;SDS011;9686;48.832;9.126;2022-09-09T06:12:35;2.60;;;0.80;;
19107;SDS011;9686;48.832;9.126;2022-09-09T06:15:01;2.30;;;1.43;;
19107;SDS011;9686;48.832;9.126;2022-09-09T06:17:27;4.20;;;0.90;;
19107;SDS011;9686;48.832;9.126;2022-09-09T06:19:52;1.97;;;1.10;;
19107;SDS011;9686;48.832;9.126;2022-09-09T06:22:21;1.77;;;0.73;;
19107;SDS011;9686;48.832;9.126;2022-09-09T06:24:47;1.60;;;0.70;;
19107;SDS011;9686;48.832;9.126;2022-09-09T06:27:12;1.67;;;1.00;;
19107;SDS011;9686;48.832;9.126;2022-09-09T06:29:38;2.70;;;0.90;;
19107;SDS011;9686;48.832;9.126;2022-09-09T06:32:04;3.10;;;0.97;;
19107;SDS011;9686;48.832;9.126;2022-09-09T06:34:29;2.07;;;0.70;;
19107;SDS011;9686;48.832;9.126;2022-09-09T06:36:55;2.93;;;0.80;;
19107;SDS011;9686;48.832;9.126;2022-09-09T06:39:22;1.80;;;0.80;;
19107;SDS011;9686;48.832;9.126;2022-09-09T06:41:48;1.40;;;0.80;;
19107;SDS011;9686;48.832;9.126;2022-09-09T06:44:13;1.80;;;0.90;;
19107;SDS011;9686;48.832;9.126;2022-09-09T06:46:40;4.13;;;1.23;;
19107;SDS011;9686;48.832;9.126;2022-09-09T06:49:05;2.67;;;0.87;;
19107;SDS011;9686;48.832;9.126;2022-09-09T06:51:31;3.40;;;0.90;;
19107;SDS011;9686;48.832;9.126;2022-09-09T06:54:00;7.50;;;1.60;;
19107;SDS011;9686;48.832;9.126;2022-09-09T06:56:34;1.33;;;0.90;;
19107;SDS011;9686;48.832;9.126;2022-09-09T06:59:02;5.53;;;1.20;;
19107;SDS011;9686;48.832;9.126;2022-09-09T07:01:32;1.60;;;0.90;;
19107;SDS011;9686;48.832;9.126;2022-09-09T07:04:00;1.73;;;0.90;;
19107;SDS011;9686;48.832;9.126;2022-09-09T07:06:30;2.90;;;1.07;;
19107;SDS011;9686;48.832;9.126;2022-09-09T07:08:58;3.03;;;1.00;;
19107;SDS011;9686;48.832;9.126;2022-09-09T07:11:25;2.57;;;0.97;;
19107;SDS011;9686;48.832;9.126;2022-09-09T07:13:52;3.27;;;0.93;;
19107;SDS011;9686;48.832;9.126;2022-09-09T07:16:19;3.13;;;0.90;;
19107;SDS011;9686;48.832;9.126;2022-09-09T07:18:46;2.37;;;0.90;;
19107;SDS011;9686;48.832;9.126;2022-09-09T07:21:12;1.23;;;0.87;;
19107;SDS011;9686;48.832;9.126;2022-09-09T07:23:38;1.70;;;0.70;;
19107;SDS011;9686;48.832;9.126;2022-09-09T07:26:08;1.33;;;0.93;;
19107;SDS011;9686;48.832;9.126;2022-09-09T07:28:41;2.20;;;1.20;;
19107;SDS011;9686;48.832;9.126;2022-09-09T07:31:08;2.97;;;0.97;;
19107;SDS011;9686;48.832;9.126;2022-09-09T07:33:39;2.93;;;0.80;;
19107;SDS011;9686;48.832;9.126;2022-09-09T07:36:09;2.33;;;0.93;;
19107;SDS011;9686;48.832;9.126;2022-09-09T07:38:38;3.37;;;1.00;;
19107;SDS011;9686;48.832;9.126;2022-09-09T07:41:07;2.70;;;1.00;;
19107;SDS011;9686;48.832;9.126;2022-09-09T07:43:44;3.37;;;0.93;;
19107;SDS011;9686;48.832;9.126;2022-09-09T07:46:10;4.73;;;1.13;;
19107;SDS011;9686;48.832;9.126;2022-09-09T07:48:37;4.07;;;0.93;;
19107;SDS011;9686;48.832;9.126;2022-09-09T07:51:15;1.33;;;0.77;;
19107;SDS011;9686;48.832;9.126;2022-09-09T07:53:43;3.97;;;1.00;;
19107;SDS011;9686;48.832;9.126;2022-09-09T07:56:10;2.43;;;0.70;;
19107;SDS011;9686;48.832;9.126;2022-09-09T07:58:37;5.03;;;1.20;;
19107;SDS011;9686;48.832;9.126;2022-09-09T08:01:10;2.30;;;0.90;;
19107;SDS011;9686;48.832;9.126;2022-09-09T08:03:38;2.53;;;1.10;;
19107;SDS011;9686;48.832;9.126;2022-09-09T08:06:04;3.73;;;0.73;;
19107;SDS011;9686;48.832;9.126;2022-09-09T08:08:32;2.33;;;0.87;;
19107;SDS011;9686;48.832;9.126;2022-09-09T08:11:05;2.33;;;0.83;;
19107;SDS011;9686;48.832;9.126;2022-09-09T08:13:33;2.80;;;1.07;;
19107;SDS011;9686;48.832;9.126;2022-09-09T08:16:04;3.00;;;0.93;;
19107;SDS011;9686;48.832;9.126;2022-09-09T08:18:34;4.33;;;1.30;;
19107;SDS011;9686;48.832;9.126;2022-09-09T08:21:10;4.20;;;0.80;;
19107;SDS011;9686;48.832;9.126;2022-09-09T08:23:40;4.57;;;1.10;;
19107;SDS011;9686;48.832;9.126;2022-09-09T08:26:16;4.97;;;1.20;;
19107;SDS011;9686;48.832;9.126;2022-09-09T08:28:47;2.87;;;0.73;;
19107;SDS011;9686;48.832;9.126;2022-09-09T08:31:17;4.00;;;1.23;;
19107;SDS011;9686;48.832;9.126;2022-09-09T08:33:44;4.17;;;1.07;;
19107;SDS011;9686;48.832;9.126;2022-09-09T08:36:19;8.80;;;1.07;;
19107;SDS011;9686;48.832;9.126;2022-09-09T08:38:50;2.40;;;0.90;;
19107;SDS011;9686;48.832;9.126;2022-09-09T08:41:35;1.40;;;1.27;;
19107;SDS011;9686;48.832;9.126;2022-09-09T09:01:02;3.53;;;0.60;;
19107;SDS011;9686;48.832;9.126;2022-09-09T09:12:20;2.53;;;0.90;;
19107;SDS011;9686;48.832;9.126;2022-09-09T09:14:49;1.10;;;0.77;;
19107;SDS011;9686;48.832;9.126;2022-09-09T09:17:18;5.10;;;0.90;;
19107;SDS011;9686;48.832;9.126;2022-09-09T09:19:45;2.20;;;0.60;;
19107;SDS011;9686;48.832;9.126;2022-09-09T09:24:53;4.50;;;0.70;;
19107;SDS011;9686;48.832;9.126;2022-09-09T09:27:34;1.97;;;0.80;;
19107;SDS011;9686;48.832;9.126;2022-09-09T09:30:15;1.93;;;0.80;;
19107;SDS011;9686;48.832;9.126;2022-09-09T09:32:44;4.20;;;0.93;;
19107;SDS011;9686;48.832;9.126;2022-09-09T09:35:19;3.03;;;0.90;;
19107;SDS011;9686;48.832;9.126;2022-09-09T09:37:44;2.03;;;0.97;;
19107;SDS011;9686;48.832;9.126;2022-09-09T09:40:14;2.07;;;0.97;;
19107;SDS011;9686;48.832;9.126;2022-09-09T09:42:56;1.67;;;0.60;;
19107;SDS011;9686;48.832;9.126;2022-09-09T09:45:32;2.37;;;0.87;;
19107;SDS011;9686;48.832;9.126;2022-09-09T09:48:11;2.37;;;0.70;;
19107;SDS011;9686;48.832;9.126;2022-09-09T09:53:30;2.63;;;0.50;;
19107;SDS011;9686;48.832;9.126;2022-09-09T09:55:58;5.20;;;0.80;;
19107;SDS011;9686;48.832;9.126;2022-09-09T09:58:26;1.63;;;0.70;;
19107;SDS011;9686;48.832;9.126;2022-09-09T10:00:58;0.93;;;0.43;;
19107;SDS011;9686;48.832;9.126;2022-09-09T10:03:28;1.27;;;0.53;;
19107;SDS011;9686;48.832;9.126;2022-09-09T10:05:56;1.33;;;0.67;;
19107;SDS011;9686;48.832;9.126;2022-09-09T10:08:25;3.60;;;0.70;;
19107;SDS011;9686;48.832;9.126;2022-09-09T10:13:48;3.50;;;0.90;;
19107;SDS011;9686;48.832;9.126;2022-09-09T10:19:20;5.07;;;0.70;;
19107;SDS011;9686;48.832;9.126;2022-09-09T10:24:33;2.57;;;0.63;;
19107;SDS011;9686;48.832;9.126;2022-09-09T10:27:05;2.33;;;0.73;;
19107;SDS011;9686;48.832;9.126;2022-09-09T10:35:00;0.77;;;0.50;;
19107;SDS011;9686;48.832;9.126;2022-09-09T10:40:33;2.10;;;0.83;;
19107;SDS011;9686;48.832;9.126;2022-09-09T10:46:01;3.83;;;0.80;;
19107;SDS011;9686;48.832;9.126;2022-09-09T10:49:42;2.90;;;0.67;;
19107;SDS011;9686;48.832;9.126;2022-09-09T11:00:01;1.77;;;0.60;;
19107;SDS011;9686;48.832;9.126;2022-09-09T11:02:33;0.80;;;0.67;;
19107;SDS011;9686;48.832;9.126;2022-09-09T11:05:01;1.83;;;0.90;;
19107;SDS011;9686;48.832;9.126;2022-09-09T11:07:47;1.97;;;0.80;;
19107;SDS011;9686;48.832;9.126;2022-09-09T11:12:49;3.23;;;1.10;;
19107;SDS011;9686;48.832;9.126;2022-09-09T11:15:28;10.47;;;1.60;;
19107;SDS011;9686;48.832;9.126;2022-09-09T11:18:01;2.43;;;1.00;;
19107;SDS011;9686;48.832;9.126;2022-09-09T11:20:41;4.90;;;1.30;;
19107;SDS011;9686;48.832;9.126;2022-09-09T11:23:10;3.47;;;1.10;;
19107;SDS011;9686;48.832;9.126;2022-09-09T11:25:48;5.57;;;1.00;;
19107;SDS011;9686;48.832;9.126;2022-09-09T11:28:39;5.37;;;0.80;;
19107;SDS011;9686;48.832;9.126;2022-09-09T11:40:02;2.00;;;0.70;;
19107;SDS011;9686;48.832;9.126;2022-09-09T11:43:27;1.07;;;0.50;;
19107;SDS011;9686;48.832;9.126;2022-09-09T11:46:01;0.70;;;0.50;;
19107;SDS011;9686;48.832;9.126;2022-09-09T11:48:29;1.50;;;0.40;;
19107;SDS011;9686;48.832;9.126;2022-09-09T11:51:06;2.30;;;0.77;;
19107;SDS011;9686;48.832;9.126;2022-09-09T11:53:35;0.93;;;0.53;;
19107;SDS011;9686;48.832;9.126;2022-09-09T11:58:39;0.53;;;0.43;;
19107;SDS011;9686;48.832;9.126;2022-09-09T12:01:27;0.87;;;0.50;;
19107;SDS011;9686;48.832;9.126;2022-09-09T12:09:19;2.23;;;0.60;;
19107;SDS011;9686;48.832;9.126;2022-09-09T12:11:50;1.90;;;0.50;;
19107;SDS011;9686;48.832;9.126;2022-09-09T12:14:35;1.70;;;0.50;;
19107;SDS011;9686;48.832;9.126;2022-09-09T12:17:09;3.27;;;0.63;;
19107;SDS011;9686;48.832;9.126;2022-09-09T12:19:40;1.23;;;0.50;;
19107;SDS011;9686;48.832;9.126;2022-09-09T12:27:59;0.93;;;0.50;;
19107;SDS011;9686;48.832;9.126;2022-09-09T12:30:34;1.17;;;0.40;;
19107;SDS011;9686;48.832;9.126;2022-09-09T12:33:12;1.87;;;0.50;;
19107;SDS011;9686;48.832;9.126;2022-09-09T12:35:42;3.60;;;0.57;;
19107;SDS011;9686;48.832;9.126;2022-09-09T12:38:14;1.90;;;0.50;;
19107;SDS011;9686;48.832;9.126;2022-09-09T12:40:57;1.23;;;0.50;;
19107;SDS011;9686;48.832;9.126;2022-09-09T12:43:24;1.47;;;0.43;;
19107;SDS011;9686;48.832;9.126;2022-09-09T12:45:51;0.80;;;0.40;;
19107;SDS011;9686;48.832;9.126;2022-09-09T12:48:24;1.77;;;0.50;;
19107;SDS011;9686;48.832;9.126;2022-09-09T12:50:53;1.30;;;0.50;;
19107;SDS011;9686;48.832;9.126;2022-09-09T12:53:31;2.47;;;0.50;;
19107;SDS011;9686;48.832;9.126;2022-09-09T12:56:04;0.40;;;0.37;;
19107;SDS011;9686;48.832;9.126;2022-09-09T12:58:33;0.47;;;0.33;;
19107;SDS011;9686;48.832;9.126;2022-09-09T13:00:59;1.00;;;0.50;;
19107;SDS011;9686;48.832;9.126;2022-09-09T13:03:28;0.93;;;0.37;;
19107;SDS011;9686;48.832;9.126;2022-09-09T13:05:53;1.63;;;0.50;;
19107;SDS011;9686;48.832;9.126;2022-09-09T13:08:25;1.67;;;0.50;;
19107;SDS011;9686;48.832;9.126;2022-09-09T13:10:57;1.20;;;0.43;;
19107;SDS011;9686;48.832;9.126;2022-09-09T13:13:29;2.60;;;0.63;;
19107;SDS011;9686;48.832;9.126;2022-09-09T13:16:00;1.87;;;0.60;;
19107;SDS011;9686;48.832;9.126;2022-09-09T13:18:30;0.67;;;0.50;;
19107;SDS011;9686;48.832;9.126;2022-09-09T13:20:58;2.77;;;0.53;;
19107;SDS011;9686;48.832;9.126;2022-09-09T13:23:28;1.70;;;0.50;;
19107;SDS011;9686;48.832;9.126;2022-09-09T13:25:57;3.03;;;0.40;;
19107;SDS011;9686;48.832;9.126;2022-09-09T13:28:25;1.43;;;1.00;;
19107;SDS011;9686;48.832;9.126;2022-09-09T13:30:58;1.83;;;0.40;;
19107;SDS011;9686;48.832;9.126;2022-09-09T13:33:29;0.73;;;0.50;;
19107;SDS011;9686;48.832;9.126;2022-09-09T13:36:03;1.33;;;0.60;;
19107;SDS011;9686;48.832;9.126;2022-09-09T13:38:32;1.90;;;0.57;;
19107;SDS011;9686;48.832;9.126;2022-09-09T13:43:35;1.70;;;0.40;;
19107;SDS011;9686;48.832;9.126;2022-09-09T13:46:21;1.03;;;0.50;;
19107;SDS011;9686;48.832;9.126;2022-09-09T13:48:59;1.77;;;0.57;;
19107;SDS011;9686;48.832;9.126;2022-09-09T13:54:09;2.03;;;0.50;;
19107;SDS011;9686;48.832;9.126;2022-09-09T13:56:36;2.20;;;0.50;;
19107;SDS011;9686;48.832;9.126;2022-09-09T13:59:03;0.93;;;0.40;;
19107;SDS011;9686;48.832;9.126;2022-09-09T14:01:29;1.47;;;0.50;;
19107;SDS011;9686;48.832;9.126;2022-09-09T14:03:56;1.17;;;0.37;;
19107;SDS011;9686;48.832;9.126;2022-09-09T14:06:21;1.70;;;0.40;;
19107;SDS011;9686;48.832;9.126;2022-09-09T14:08:47;1.90;;;0.67;;
19107;SDS011;9686;48.832;9.126;2022-09-09T14:11:15;0.90;;;0.50;;
19107;SDS011;9686;48.832;9.126;2022-09-09T14:13:41;1.97;;;0.47;;
19107;SDS011;9686;48.832;9.126;2022-09-09T14:16:06;2.13;;;0.50;;
19107;SDS011;9686;48.832;9.126;2022-09-09T14:18:32;1.83;;;0.50;;
19107;SDS011;9686;48.832;9.126;2022-09-09T14:20:58;2.33;;;0.50;;
19107;SDS011;9686;48.832;9.126;2022-09-09T14:23:24;0.83;;;0.40;;
19107;SDS011;9686;48.832;9.126;2022-09-09T14:25:50;0.97;;;0.40;;
19107;SDS011;9686;48.832;9.126;2022-09-09T14:28:16;3.00;;;0.57;;
19107;SDS011;9686;48.832;9.126;2022-09-09T14:30:42;1.90;;;0.50;;
19107;SDS011;9686;48.832;9.126;2022-09-09T14:33:10;3.13;;;0.73;;
19107;SDS011;9686;48.832;9.126;2022-09-09T14:35:36;1.73;;;0.47;;
19107;SDS011;9686;48.832;9.126;2022-09-09T14:38:02;1.03;;;0.30;;
19107;SDS011;9686;48.832;9.126;2022-09-09T14:40:29;2.53;;;0.50;;
19107;SDS011;9686;48.832;9.126;2022-09-09T14:42:54;1.17;;;0.50;;
19107;SDS011;9686;48.832;9.126;2022-09-09T14:45:21;1.83;;;0.50;;
19107;SDS011;9686;48.832;9.126;2022-09-09T14:47:49;1.60;;;0.50;;
19107;SDS011;9686;48.832;9.126;2022-09-09T14:50:14;1.70;;;0.50;;
19107;SDS011;9686;48.832;9.126;2022-09-09T14:52:40;2.23;;;0.30;;
19107;SDS011;9686;48.832;9.126;2022-09-09T14:55:05;0.63;;;0.40;;
19107;SDS011;9686;48.832;9.126;2022-09-09T14:57:32;0.97;;;0.37;;
19107;SDS011;9686;48.832;9.126;2022-09-09T15:00:00;0.50;;;0.40;;
19107;SDS011;9686;48.832;9.126;2022-09-09T15:02:25;1.50;;;0.30;;
19107;SDS011;9686;48.832;9.126;2022-09-09T15:04:51;0.73;;;0.50;;
19107;SDS011;9686;48.832;9.126;2022-09-09T15:07:17;1.63;;;0.40;;
19107;SDS011;9686;48.832;9.126;2022-09-09T15:09:44;0.47;;;0.37;;
19107;SDS011;9686;48.832;9.126;2022-09-09T15:12:09;0.70;;;0.30;;
19107;SDS011;9686;48.832;9.126;2022-09-09T15:14:35;1.27;;;0.40;;
19107;SDS011;9686;48.832;9.126;2022-09-09T15:17:00;1.27;;;0.40;;
19107;SDS011;9686;48.832;9.126;2022-09-09T15:19:26;1.07;;;0.40;;
19107;SDS011;9686;48.832;9.126;2022-09-09T15:21:51;2.03;;;0.37;;
19107;SDS011;9686;48.832;9.126;2022-09-09T15:24:16;1.63;;;0.40;;
19107;SDS011;9686;48.832;9.126;2022-09-09T15:26:42;0.70;;;0.30;;
19107;SDS011;9686;48.832;9.126;2022-09-09T15:29:07;3.23;;;0.40;;
19107;SDS011;9686;48.832;9.126;2022-09-09T15:31:33;0.43;;;0.20;;
19107;SDS011;9686;48.832;9.126;2022-09-09T15:34:03;1.43;;;0.40;;
19107;SDS011;9686;48.832;9.126;2022-09-09T15:36:35;1.40;;;0.40;;
19107;SDS011;9686;48.832;9.126;2022-09-09T15:39:02;3.83;;;0.33;;
19107;SDS011;9686;48.832;9.126;2022-09-09T15:41:29;1.03;;;0.40;;
19107;SDS011;9686;48.832;9.126;2022-09-09T15:43:56;1.57;;;0.67;;
19107;SDS011;9686;48.832;9.126;2022-09-09T15:46:32;1.07;;;0.50;;
19107;SDS011;9686;48.832;9.126;2022-09-09T15:51:30;1.70;;;0.53;;
19107;SDS011;9686;48.832;9.126;2022-09-09T15:53:57;0.70;;;0.40;;
19107;SDS011;9686;48.832;9.126;2022-09-09T15:56:24;2.10;;;0.50;;
19107;SDS011;9686;48.832;9.126;2022-09-09T15:58:50;0.80;;;0.40;;
19107;SDS011;9686;48.832;9.126;2022-09-09T16:01:17;1.00;;;0.40;;
19107;SDS011;9686;48.832;9.126;2022-09-09T16:03:44;0.70;;;0.40;;
19107;SDS011;9686;48.832;9.126;2022-09-09T16:06:15;1.80;;;0.70;;
19107;SDS011;9686;48.832;9.126;2022-09-09T16:08:42;1.03;;;0.47;;
19107;SDS011;9686;48.832;9.126;2022-09-09T16:11:11;2.13;;;0.70;;
19107;SDS011;9686;48.832;9.126;2022-09-09T16:13:42;2.10;;;0.57;;
19107;SDS011;9686;48.832;9.126;2022-09-09T16:16:09;2.27;;;0.50;;
19107;SDS011;9686;48.832;9.126;2022-09-09T16:18:40;2.53;;;0.70;;
19107;SDS011;9686;48.832;9.126;2022-09-09T16:21:08;0.87;;;0.50;;
19107;SDS011;9686;48.832;9.126;2022-09-09T16:23:38;1.90;;;0.50;;
19107;SDS011;9686;48.832;9.126;2022-09-09T16:26:04;1.90;;;0.30;;
19107;SDS011;9686;48.832;9.126;2022-09-09T16:28:30;1.43;;;0.30;;
19107;SDS011;9686;48.832;9.126;2022-09-09T16:30:55;0.63;;;0.20;;
19107;SDS011;9686;48.832;9.126;2022-09-09T16:33:21;0.50;;;0.27;;
19107;SDS011;9686;48.832;9.126;2022-09-09T16:35:47;1.37;;;0.20;;
19107;SDS011;9686;48.832;9.126;2022-09-09T16:38:14;0.73;;;0.27;;
19107;SDS011;9686;48.832;9.126;2022-09-09T16:40:39;0.20;;;0.20;;
19107;SDS011;9686;48.832;9.126;2022-09-09T16:43:06;1.60;;;0.40;;
19107;SDS011;9686;48.832;9.126;2022-09-09T16:45:32;0.63;;;0.30;;
19107;SDS011;9686;48.832;9.126;2022-09-09T16:47:58;0.83;;;0.10;;
19107;SDS011;9686;48.832;9.126;2022-09-09T16:50:25;0.50;;;0.30;;
19107;SDS011;9686;48.832;9.126;2022-09-09T16:52:51;1.70;;;0.20;;
19107;SDS011;9686;48.832;9.126;2022-09-09T16:55:17;1.53;;;0.30;;
19107;SDS011;9686;48.832;9.126;2022-09-09T16:57:44;0.90;;;0.33;;
19107;SDS011;9686;48.832;9.126;2022-09-09T17:00:09;0.30;;;0.20;;
19107;SDS011;9686;48.832;9.126;2022-09-09T17:02:35;0.37;;;0.30;;
19107;SDS011;9686;48.832;9.126;2022-09-09T17:05:01;1.70;;;0.37;;
19107;SDS011;9686;48.832;9.126;2022-09-09T17:07:26;0.33;;;0.20;;
19107;SDS011;9686;48.832;9.126;2022-09-09T17:09:52;1.53;;;0.33;;
19107;SDS011;9686;48.832;9.126;2022-09-09T17:12:18;1.20;;;0.37;;
19107;SDS011;9686;48.832;9.126;2022-09-09T17:14:43;0.30;;;0.30;;
19107;SDS011;9686;48.832;9.126;2022-09-09T17:17:09;0.47;;;0.30;;
19107;SDS011;9686;48.832;9.126;2022-09-09T17:19:35;0.20;;;0.20;;
19107;SDS011;9686;48.832;9.126;2022-09-09T17:22:00;0.23;;;0.23;;
19107;SDS011;9686;48.832;9.126;2022-09-09T17:24:26;0.30;;;0.30;;